Airfield :
LOGIN :

Register | Disclaimer

   EN    FR    IT 

 










Legend :    VFR   Marginal VFR   IFR   Intensive IFR   Very Intensive IFR
Visi :
Ceiling :
>= 8 km
>= 3000ft
5 to 8 km
1000 to 3000 ft
1500m to 5 km
500 to 1000 ft
800 to 1500m
200 to 500 ft
< 800m
< 200 ft
Symbols :   Thunderstorms  Fog  Heavy snow  Heavy precipitations  Wind > 20 kt
SIGMETs :     Misc.  Thunderstorms  Icing  Turbulence  Mountain Waves  Volcanic Ashes






- Airport Elevation : 158 ft
- IATA code : QAR


EHDL - Deelen Airbase

CURRENT METAR :
  • 231825Z AUTO 22003KT 190V330 9999 BKN100 BKN280 18/11 Q1015 BLU

EXPIRED METARs :
  • 231755Z AUTO 24004KT 180V270 9999 BKN099/// 18/12 Q1015 BLU RMK TS INFO NOT AVBL
  • 231725Z AUTO 26004KT 190V360 9999 FEW083 SCT100 19/11 Q1015 BLU
  • 231655Z AUTO 27005KT 220V350 9999 OVC100 18/11 Q1015 BLU
  • 231625Z AUTO 26008KT 190V330 9999 FEW067 SCT073 OVC100 19/10 Q1015 BLU
  • 231555Z AUTO 26010KT 170V320 9999 BKN039 BKN048 BKN059 20/11 Q1015 BLU
  • 231525Z AUTO 22010KT 120V290 9999 FEW041 BKN097 20/10 Q1014 BLU
  • 231455Z AUTO 22009KT 150V270 9999 FEW035 SCT082 BKN087 20/11 Q1014 BLU
  • 231425Z AUTO 24010KT 9999 BKN078 BKN084 BKN090 20/12 Q1014 BLU
  • 231355Z AUTO 21011KT 120V290 9999 FEW037 SCT048 20/11 Q1014 BLU

Expired Forecast.



MET'MAP, your aeronautical weather chart ! - Copyright ORBIFLY December 2007 - Disclaimer

ORBIFLY MET'MAP TEAM :

Programming & Development : Alexandra Zaïnal
Original concept : Baudouin d'Aumeries
Technical & hardware support : Manuel Goepfert
Assistance : Marc-Olivier Méhu




SOURCES & CREDITS :

   NOAA